sensor_id;sensor_type;location;lat;lon;timestamp;pressure;altitude;pressure_sealevel;temperature;humidity
33414;BME280;60055;41.884;12.534;2024-01-25T00:01:37;102210.41;;;9.80;79.01
33414;BME280;60055;41.884;12.534;2024-01-25T00:04:03;102204.38;;;9.65;79.23
33414;BME280;60055;41.884;12.534;2024-01-25T00:06:28;102203.66;;;9.45;79.79
33414;BME280;60055;41.884;12.534;2024-01-25T00:08:54;102206.19;;;9.57;79.63
33414;BME280;60055;41.884;12.534;2024-01-25T00:11:19;102207.06;;;9.59;79.62
33414;BME280;60055;41.884;12.534;2024-01-25T00:13:44;102202.72;;;9.52;79.75
33414;BME280;60055;41.884;12.534;2024-01-25T00:16:10;102205.34;;;9.54;79.61
33414;BME280;60055;41.884;12.534;2024-01-25T00:18:35;102202.59;;;9.64;78.93
33414;BME280;60055;41.884;12.534;2024-01-25T00:21:01;102204.44;;;9.53;79.54
33414;BME280;60055;41.884;12.534;2024-01-25T00:23:26;102201.81;;;9.53;79.10
33414;BME280;60055;41.884;12.534;2024-01-25T00:25:52;102197.53;;;9.40;79.63
33414;BME280;60055;41.884;12.534;2024-01-25T00:28:18;102195.78;;;9.42;79.77
33414;BME280;60055;41.884;12.534;2024-01-25T00:30:43;102182.47;;;9.54;79.12
33414;BME280;60055;41.884;12.534;2024-01-25T00:33:09;102181.53;;;9.61;78.73
33414;BME280;60055;41.884;12.534;2024-01-25T00:35:34;102191.38;;;9.43;79.00
33414;BME280;60055;41.884;12.534;2024-01-25T00:38:00;102187.88;;;9.41;79.55
33414;BME280;60055;41.884;12.534;2024-01-25T00:40:26;102199.38;;;9.32;79.58
33414;BME280;60055;41.884;12.534;2024-01-25T00:42:52;102188.94;;;9.15;80.56
33414;BME280;60055;41.884;12.534;2024-01-25T00:45:23;102180.06;;;9.27;79.88
33414;BME280;60055;41.884;12.534;2024-01-25T00:47:49;102182.72;;;9.26;79.97
33414;BME280;60055;41.884;12.534;2024-01-25T00:50:16;102176.66;;;9.14;79.99
33414;BME280;60055;41.884;12.534;2024-01-25T00:52:47;102173.28;;;8.94;80.50
33414;BME280;60055;41.884;12.534;2024-01-25T00:55:13;102169.78;;;8.89;80.19
33414;BME280;60055;41.884;12.534;2024-01-25T00:57:39;102169.84;;;8.77;80.90
33414;BME280;60055;41.884;12.534;2024-01-25T01:00:05;102164.59;;;8.76;80.80
33414;BME280;60055;41.884;12.534;2024-01-25T01:02:35;102167.16;;;8.88;80.69
33414;BME280;60055;41.884;12.534;2024-01-25T01:05:01;102175.94;;;8.91;80.33
33414;BME280;60055;41.884;12.534;2024-01-25T01:07:27;102171.44;;;9.02;80.05
33414;BME280;60055;41.884;12.534;2024-01-25T01:09:52;102177.66;;;8.92;80.29
33414;BME280;60055;41.884;12.534;2024-01-25T01:12:17;102174.19;;;8.89;80.49
33414;BME280;60055;41.884;12.534;2024-01-25T01:14:43;102167.13;;;8.95;80.44
33414;BME280;60055;41.884;12.534;2024-01-25T01:17:08;102170.53;;;9.06;80.09
33414;BME280;60055;41.884;12.534;2024-01-25T01:19:34;102175.78;;;9.14;79.81
33414;BME280;60055;41.884;12.534;2024-01-25T01:22:00;102182.84;;;9.07;79.81
33414;BME280;60055;41.884;12.534;2024-01-25T01:24:25;102181.03;;;9.14;79.52
33414;BME280;60055;41.884;12.534;2024-01-25T01:26:50;102167.78;;;9.23;79.37
33414;BME280;60055;41.884;12.534;2024-01-25T01:29:17;102174.00;;;9.19;78.73
33414;BME280;60055;41.884;12.534;2024-01-25T01:31:42;102180.13;;;9.18;78.60
33414;BME280;60055;41.884;12.534;2024-01-25T01:34:08;102174.88;;;9.16;78.19
33414;BME280;60055;41.884;12.534;2024-01-25T01:36:33;102177.63;;;9.00;78.58
33414;BME280;60055;41.884;12.534;2024-01-25T01:38:59;102185.53;;;9.01;78.92
33414;BME280;60055;41.884;12.534;2024-01-25T01:41:25;102180.16;;;9.13;78.54
33414;BME280;60055;41.884;12.534;2024-01-25T01:43:54;102168.91;;;8.92;78.96
33414;BME280;60055;41.884;12.534;2024-01-25T01:46:32;102176.72;;;9.05;78.30
33414;BME280;60055;41.884;12.534;2024-01-25T01:48:59;102167.94;;;9.03;78.22
33414;BME280;60055;41.884;12.534;2024-01-25T01:51:24;102170.53;;;9.08;77.97
33414;BME280;60055;41.884;12.534;2024-01-25T01:53:50;102164.34;;;9.15;77.50
33414;BME280;60055;41.884;12.534;2024-01-25T01:56:16;102158.19;;;9.14;77.36
33414;BME280;60055;41.884;12.534;2024-01-25T01:58:42;102160.00;;;9.08;77.76
33414;BME280;60055;41.884;12.534;2024-01-25T02:01:08;102153.84;;;9.12;77.14
33414;BME280;60055;41.884;12.534;2024-01-25T02:03:34;102154.81;;;8.97;76.93
33414;BME280;60055;41.884;12.534;2024-01-25T02:06:00;102158.28;;;9.05;76.31
33414;BME280;60055;41.884;12.534;2024-01-25T02:08:29;102156.50;;;9.03;76.18
33414;BME280;60055;41.884;12.534;2024-01-25T02:10:55;102154.06;;;8.77;76.41
33414;BME280;60055;41.884;12.534;2024-01-25T02:13:21;102147.06;;;8.71;76.70
33414;BME280;60055;41.884;12.534;2024-01-25T02:15:46;102149.56;;;8.93;75.96
33414;BME280;60055;41.884;12.534;2024-01-25T02:18:12;102147.84;;;8.89;76.04
33414;BME280;60055;41.884;12.534;2024-01-25T02:20:37;102147.84;;;8.86;75.95
33414;BME280;60055;41.884;12.534;2024-01-25T02:23:03;102144.34;;;8.88;74.58
33414;BME280;60055;41.884;12.534;2024-01-25T02:25:28;102137.34;;;8.80;74.93
33414;BME280;60055;41.884;12.534;2024-01-25T02:27:54;102133.81;;;8.82;75.45
33414;BME280;60055;41.884;12.534;2024-01-25T02:30:19;102130.34;;;8.80;75.64
33414;BME280;60055;41.884;12.534;2024-01-25T02:32:45;102116.25;;;8.87;75.59
33414;BME280;60055;41.884;12.534;2024-01-25T02:35:10;102098.66;;;8.89;76.06
33414;BME280;60055;41.884;12.534;2024-01-25T02:37:35;102095.16;;;8.87;75.92
33414;BME280;60055;41.884;12.534;2024-01-25T02:40:01;102103.06;;;8.92;75.57
33414;BME280;60055;41.884;12.534;2024-01-25T02:42:26;102100.31;;;9.02;75.49
33414;BME280;60055;41.884;12.534;2024-01-25T02:44:52;102099.41;;;9.06;75.39
33414;BME280;60055;41.884;12.534;2024-01-25T02:47:17;102099.31;;;9.18;75.36
33414;BME280;60055;41.884;12.534;2024-01-25T02:49:43;102101.03;;;9.26;74.79
33414;BME280;60055;41.884;12.534;2024-01-25T02:52:09;102100.19;;;9.19;75.48
33414;BME280;60055;41.884;12.534;2024-01-25T02:54:35;102093.28;;;9.04;75.68
33414;BME280;60055;41.884;12.534;2024-01-25T02:57:02;102102.16;;;8.94;75.75
33414;BME280;60055;41.884;12.534;2024-01-25T02:59:27;102104.75;;;8.99;76.40
33414;BME280;60055;41.884;12.534;2024-01-25T03:01:54;102082.72;;;9.07;76.18
33414;BME280;60055;41.884;12.534;2024-01-25T03:04:19;102072.16;;;9.12;75.72
33414;BME280;60055;41.884;12.534;2024-01-25T03:06:45;102070.28;;;9.23;75.78
33414;BME280;60055;41.884;12.534;2024-01-25T03:09:10;102063.16;;;9.36;75.54
33414;BME280;60055;41.884;12.534;2024-01-25T03:11:36;102056.91;;;9.44;75.40
33414;BME280;60055;41.884;12.534;2024-01-25T03:14:01;102050.78;;;9.41;75.60
33414;BME280;60055;41.884;12.534;2024-01-25T03:16:27;102042.06;;;9.36;75.10
33414;BME280;60055;41.884;12.534;2024-01-25T03:18:52;102044.47;;;9.54;74.84
33414;BME280;60055;41.884;12.534;2024-01-25T03:21:17;102040.09;;;9.56;74.57
33414;BME280;60055;41.884;12.534;2024-01-25T03:23:43;102041.78;;;9.60;74.28
33414;BME280;60055;41.884;12.534;2024-01-25T03:26:08;102036.56;;;9.54;74.10
33414;BME280;60055;41.884;12.534;2024-01-25T03:28:34;102026.09;;;9.48;74.40
33414;BME280;60055;41.884;12.534;2024-01-25T03:31:01;102033.03;;;9.58;74.01
33414;BME280;60055;41.884;12.534;2024-01-25T03:33:26;102033.06;;;9.53;74.01
33414;BME280;60055;41.884;12.534;2024-01-25T03:35:53;102031.41;;;9.45;74.39
33414;BME280;60055;41.884;12.534;2024-01-25T03:38:19;102025.34;;;9.38;74.66
33414;BME280;60055;41.884;12.534;2024-01-25T03:40:44;102020.91;;;9.42;75.01
33414;BME280;60055;41.884;12.534;2024-01-25T03:43:10;102012.91;;;9.48;74.89
33414;BME280;60055;41.884;12.534;2024-01-25T03:45:35;102014.72;;;9.44;75.28
33414;BME280;60055;41.884;12.534;2024-01-25T03:48:01;102002.53;;;9.34;75.68
33414;BME280;60055;41.884;12.534;2024-01-25T03:50:27;102018.25;;;9.40;75.51
33414;BME280;60055;41.884;12.534;2024-01-25T03:52:52;102013.06;;;9.34;75.52
33414;BME280;60055;41.884;12.534;2024-01-25T03:55:18;102009.69;;;9.21;76.60
33414;BME280;60055;41.884;12.534;2024-01-25T03:57:44;102009.75;;;9.15;76.50
33414;BME280;60055;41.884;12.534;2024-01-25T04:00:10;102011.44;;;9.22;76.40
33414;BME280;60055;41.884;12.534;2024-01-25T04:02:36;102004.38;;;9.23;77.11
33414;BME280;60055;41.884;12.534;2024-01-25T04:05:02;102007.91;;;9.25;77.02
33414;BME280;60055;41.884;12.534;2024-01-25T04:07:28;102016.91;;;9.01;78.36
33414;BME280;60055;41.884;12.534;2024-01-25T04:09:53;102016.78;;;9.13;78.11
33414;BME280;60055;41.884;12.534;2024-01-25T04:12:18;102007.94;;;9.20;78.05
33414;BME280;60055;41.884;12.534;2024-01-25T04:14:44;102015.13;;;9.03;78.19
33414;BME280;60055;41.884;12.534;2024-01-25T04:17:09;102008.81;;;9.19;77.97
33414;BME280;60055;41.884;12.534;2024-01-25T04:19:36;102015.81;;;9.25;77.70
33414;BME280;60055;41.884;12.534;2024-01-25T04:22:01;102010.66;;;9.10;78.82
33414;BME280;60055;41.884;12.534;2024-01-25T04:24:27;102001.09;;;9.01;78.61
33414;BME280;60055;41.884;12.534;2024-01-25T04:26:52;102003.66;;;9.09;78.47
33414;BME280;60055;41.884;12.534;2024-01-25T04:29:18;102008.81;;;9.19;77.70
33414;BME280;60055;41.884;12.534;2024-01-25T04:31:44;102004.53;;;9.12;77.41
33414;BME280;60055;41.884;12.534;2024-01-25T04:34:14;102003.59;;;9.15;77.28
33414;BME280;60055;41.884;12.534;2024-01-25T04:36:40;102004.34;;;9.28;76.93
33414;BME280;60055;41.884;12.534;2024-01-25T04:39:05;101999.22;;;9.15;77.38
33414;BME280;60055;41.884;12.534;2024-01-25T04:41:31;102006.97;;;9.28;77.25
33414;BME280;60055;41.884;12.534;2024-01-25T04:43:56;102007.03;;;9.24;76.92
33414;BME280;60055;41.884;12.534;2024-01-25T04:46:22;102006.91;;;9.35;77.04
33414;BME280;60055;41.884;12.534;2024-01-25T04:48:47;102014.69;;;9.47;76.24
33414;BME280;60055;41.884;12.534;2024-01-25T04:51:16;102005.88;;;9.47;76.21
33414;BME280;60055;41.884;12.534;2024-01-25T04:53:42;102008.50;;;9.50;75.67
33414;BME280;60055;41.884;12.534;2024-01-25T04:56:07;102006.03;;;9.35;76.30
33414;BME280;60055;41.884;12.534;2024-01-25T04:58:33;102022.59;;;9.49;76.17
33414;BME280;60055;41.884;12.534;2024-01-25T05:00:58;102032.19;;;9.54;75.98
33414;BME280;60055;41.884;12.534;2024-01-25T05:03:25;102026.06;;;9.51;76.78
33414;BME280;60055;41.884;12.534;2024-01-25T05:05:50;102022.50;;;9.55;76.07
33414;BME280;60055;41.884;12.534;2024-01-25T05:08:15;102029.56;;;9.53;76.02
33414;BME280;60055;41.884;12.534;2024-01-25T05:10:41;102016.28;;;9.62;76.44
33414;BME280;60055;41.884;12.534;2024-01-25T05:13:07;102015.53;;;9.52;76.15
33414;BME280;60055;41.884;12.534;2024-01-25T05:15:32;102011.97;;;9.53;76.46
33414;BME280;60055;41.884;12.534;2024-01-25T05:17:58;102019.22;;;9.35;76.81
33414;BME280;60055;41.884;12.534;2024-01-25T05:20:23;102006.88;;;9.37;77.19
33414;BME280;60055;41.884;12.534;2024-01-25T05:22:53;102005.13;;;9.37;77.12
33414;BME280;60055;41.884;12.534;2024-01-25T05:25:19;102007.81;;;9.31;77.42
33414;BME280;60055;41.884;12.534;2024-01-25T05:27:44;102009.63;;;9.28;77.85
33414;BME280;60055;41.884;12.534;2024-01-25T05:30:10;102013.84;;;9.44;78.08
33414;BME280;60055;41.884;12.534;2024-01-25T05:32:35;102020.78;;;9.51;77.21
33414;BME280;60055;41.884;12.534;2024-01-25T05:35:01;102013.97;;;9.32;77.82
33414;BME280;60055;41.884;12.534;2024-01-25T05:37:26;102016.53;;;9.36;77.52
33414;BME280;60055;41.884;12.534;2024-01-25T05:39:52;102014.75;;;9.41;77.36
33414;BME280;60055;41.884;12.534;2024-01-25T05:42:17;102020.75;;;9.54;77.38
33414;BME280;60055;41.884;12.534;2024-01-25T05:44:42;102018.13;;;9.54;76.92
33414;BME280;60055;41.884;12.534;2024-01-25T05:47:08;102026.91;;;9.56;76.89
33414;BME280;60055;41.884;12.534;2024-01-25T05:49:33;102019.78;;;9.62;76.16
33414;BME280;60055;41.884;12.534;2024-01-25T05:51:58;102024.22;;;9.59;76.30
33414;BME280;60055;41.884;12.534;2024-01-25T05:54:24;102022.41;;;9.65;76.14
33414;BME280;60055;41.884;12.534;2024-01-25T05:56:49;102027.63;;;9.67;76.22
33414;BME280;60055;41.884;12.534;2024-01-25T05:59:14;102024.16;;;9.63;75.79
33414;BME280;60055;41.884;12.534;2024-01-25T06:01:40;102020.81;;;9.49;76.78
33414;BME280;60055;41.884;12.534;2024-01-25T06:04:05;102020.75;;;9.54;76.89
33414;BME280;60055;41.884;12.534;2024-01-25T06:06:31;102024.31;;;9.53;77.45
33414;BME280;60055;41.884;12.534;2024-01-25T06:08:56;102033.09;;;9.50;77.33
33414;BME280;60055;41.884;12.534;2024-01-25T06:11:22;102026.22;;;9.39;77.93
33414;BME280;60055;41.884;12.534;2024-01-25T06:13:47;102014.97;;;9.21;78.82
33414;BME280;60055;41.884;12.534;2024-01-25T06:16:13;102017.63;;;9.18;78.73
33414;BME280;60055;41.884;12.534;2024-01-25T06:18:38;102023.63;;;9.30;78.69
33414;BME280;60055;41.884;12.534;2024-01-25T06:21:03;102027.94;;;9.40;78.01
33414;BME280;60055;41.884;12.534;2024-01-25T06:23:29;102034.97;;;9.42;77.58
33414;BME280;60055;41.884;12.534;2024-01-25T06:25:54;102029.69;;;9.42;77.26
33414;BME280;60055;41.884;12.534;2024-01-25T06:28:20;102027.00;;;9.44;77.88
33414;BME280;60055;41.884;12.534;2024-01-25T06:30:45;102025.28;;;9.41;76.71
33414;BME280;60055;41.884;12.534;2024-01-25T06:33:10;102031.47;;;9.39;76.89
33414;BME280;60055;41.884;12.534;2024-01-25T06:35:36;102033.97;;;9.51;77.03
33414;BME280;60055;41.884;12.534;2024-01-25T06:38:01;102047.03;;;9.60;76.95
33414;BME280;60055;41.884;12.534;2024-01-25T06:40:27;102039.13;;;9.60;76.44
33414;BME280;60055;41.884;12.534;2024-01-25T06:42:52;102034.75;;;9.60;75.82
33414;BME280;60055;41.884;12.534;2024-01-25T06:45:17;102039.97;;;9.65;75.46
33414;BME280;60055;41.884;12.534;2024-01-25T06:47:43;102043.56;;;9.59;75.56
33414;BME280;60055;41.884;12.534;2024-01-25T06:50:08;102038.28;;;9.59;75.56
33414;BME280;60055;41.884;12.534;2024-01-25T06:52:34;102040.06;;;9.59;75.37
33414;BME280;60055;41.884;12.534;2024-01-25T06:55:00;102048.03;;;9.50;75.87
33414;BME280;60055;41.884;12.534;2024-01-25T06:57:25;102035.78;;;9.49;76.22
33414;BME280;60055;41.884;12.534;2024-01-25T06:59:51;102041.88;;;9.51;76.00
33414;BME280;60055;41.884;12.534;2024-01-25T07:02:16;102045.41;;;9.53;75.92
33414;BME280;60055;41.884;12.534;2024-01-25T07:04:42;102043.53;;;9.61;75.99
33414;BME280;60055;41.884;12.534;2024-01-25T07:07:07;102042.72;;;9.56;75.96
33414;BME280;60055;41.884;12.534;2024-01-25T07:09:33;102047.03;;;9.63;75.84
33414;BME280;60055;41.884;12.534;2024-01-25T07:11:58;102047.84;;;9.68;75.39
33414;BME280;60055;41.884;12.534;2024-01-25T07:14:23;102048.69;;;9.70;75.18
33414;BME280;60055;41.884;12.534;2024-01-25T07:16:49;102052.31;;;9.63;75.57
33414;BME280;60055;41.884;12.534;2024-01-25T07:19:14;102055.72;;;9.72;75.26
33414;BME280;60055;41.884;12.534;2024-01-25T07:21:40;102037.25;;;9.71;74.78
33414;BME280;60055;41.884;12.534;2024-01-25T07:24:05;102044.41;;;9.60;75.25
33414;BME280;60055;41.884;12.534;2024-01-25T07:26:31;102041.78;;;9.60;75.23
33414;BME280;60055;41.884;12.534;2024-01-25T07:28:56;102040.88;;;9.62;75.49
33414;BME280;60055;41.884;12.534;2024-01-25T07:31:27;102036.41;;;9.69;75.18
33414;BME280;60055;41.884;12.534;2024-01-25T07:33:53;102041.66;;;9.72;74.99
33414;BME280;60055;41.884;12.534;2024-01-25T07:36:19;102050.44;;;9.71;75.35
33414;BME280;60055;41.884;12.534;2024-01-25T07:38:45;102048.66;;;9.74;75.29
33414;BME280;60055;41.884;12.534;2024-01-25T07:41:14;102044.25;;;9.77;75.11
33414;BME280;60055;41.884;12.534;2024-01-25T07:43:40;102037.16;;;9.82;76.52
33414;BME280;60055;41.884;12.534;2024-01-25T07:46:05;102040.88;;;9.62;75.72
33414;BME280;60055;41.884;12.534;2024-01-25T07:48:31;102040.81;;;9.67;75.65
33414;BME280;60055;41.884;12.534;2024-01-25T07:50:57;102033.81;;;9.64;75.12
33414;BME280;60055;41.884;12.534;2024-01-25T07:53:22;102029.44;;;9.66;75.36
33414;BME280;60055;41.884;12.534;2024-01-25T07:55:48;102032.91;;;9.68;75.52
33414;BME280;60055;41.884;12.534;2024-01-25T07:58:15;102034.75;;;9.62;76.02
33414;BME280;60055;41.884;12.534;2024-01-25T08:00:40;102047.94;;;9.62;75.85
33414;BME280;60055;41.884;12.534;2024-01-25T08:03:06;102040.63;;;9.84;76.05
33414;BME280;60055;41.884;12.534;2024-01-25T08:05:31;102033.59;;;9.84;75.04
33414;BME280;60055;41.884;12.534;2024-01-25T08:07:57;102037.84;;;9.96;74.85
33414;BME280;60055;41.884;12.534;2024-01-25T08:10:22;102034.28;;;9.98;74.69
33414;BME280;60055;41.884;12.534;2024-01-25T08:12:47;102035.97;;;10.05;74.67
33414;BME280;60055;41.884;12.534;2024-01-25T08:15:13;102022.69;;;10.13;74.07
33414;BME280;60055;41.884;12.534;2024-01-25T08:17:39;102027.94;;;10.14;73.61
33414;BME280;60055;41.884;12.534;2024-01-25T08:20:05;102025.53;;;9.96;74.59
33414;BME280;60055;41.884;12.534;2024-01-25T08:22:31;102031.56;;;10.06;74.26
33414;BME280;60055;41.884;12.534;2024-01-25T08:24:57;102033.22;;;10.16;73.91
33414;BME280;60055;41.884;12.534;2024-01-25T08:27:22;102034.84;;;10.26;73.65
33414;BME280;60055;41.884;12.534;2024-01-25T08:29:48;102035.53;;;10.39;74.62
33414;BME280;60055;41.884;12.534;2024-01-25T08:32:13;102028.47;;;10.41;73.59
33414;BME280;60055;41.884;12.534;2024-01-25T08:34:39;102037.28;;;10.40;73.58
33414;BME280;60055;41.884;12.534;2024-01-25T08:37:04;102039.03;;;10.41;73.77
33414;BME280;60055;41.884;12.534;2024-01-25T08:39:29;102035.47;;;10.42;73.66
33414;BME280;60055;41.884;12.534;2024-01-25T08:41:55;102043.16;;;10.58;73.39
33414;BME280;60055;41.884;12.534;2024-01-25T08:44:22;102042.38;;;10.53;73.25
33414;BME280;60055;41.884;12.534;2024-01-25T08:46:47;102041.41;;;10.59;73.30
33414;BME280;60055;41.884;12.534;2024-01-25T08:49:13;102037.91;;;10.57;73.48
33414;BME280;60055;41.884;12.534;2024-01-25T08:51:38;102050.81;;;10.78;72.90
33414;BME280;60055;41.884;12.534;2024-01-25T08:54:04;102043.81;;;10.74;72.96
33414;BME280;60055;41.884;12.534;2024-01-25T08:56:29;102034.97;;;10.75;73.13
33414;BME280;60055;41.884;12.534;2024-01-25T08:58:55;102037.44;;;10.86;72.68
33414;BME280;60055;41.884;12.534;2024-01-25T09:01:20;102032.94;;;10.92;72.26
33414;BME280;60055;41.884;12.534;2024-01-25T09:03:46;102044.53;;;10.82;72.48
33414;BME280;60055;41.884;12.534;2024-01-25T09:06:12;102042.50;;;10.99;72.46
33414;BME280;60055;41.884;12.534;2024-01-25T09:08:37;102043.28;;;11.06;72.54
33414;BME280;60055;41.884;12.534;2024-01-25T09:11:03;102050.50;;;10.96;72.48
33414;BME280;60055;41.884;12.534;2024-01-25T09:13:29;102050.44;;;10.99;72.32
33414;BME280;60055;41.884;12.534;2024-01-25T09:15:55;102044.44;;;10.90;72.83
33414;BME280;60055;41.884;12.534;2024-01-25T09:18:20;102047.78;;;11.01;72.93
33414;BME280;60055;41.884;12.534;2024-01-25T09:20:46;102052.91;;;11.10;72.79
33414;BME280;60055;41.884;12.534;2024-01-25T09:23:14;102049.03;;;11.31;71.95
33414;BME280;60055;41.884;12.534;2024-01-25T09:25:42;102050.25;;;11.11;72.36
33414;BME280;60055;41.884;12.534;2024-01-25T09:28:07;102050.81;;;10.75;74.44
33414;BME280;60055;41.884;12.534;2024-01-25T09:30:33;102056.66;;;10.98;73.39
33414;BME280;60055;41.884;12.534;2024-01-25T09:32:58;102049.50;;;11.03;73.05
33414;BME280;60055;41.884;12.534;2024-01-25T09:35:24;102059.41;;;10.91;73.16
33414;BME280;60055;41.884;12.534;2024-01-25T09:37:49;102052.13;;;11.03;73.23
33414;BME280;60055;41.884;12.534;2024-01-25T09:40:18;102058.00;;;11.22;74.17
33414;BME280;60055;41.884;12.534;2024-01-25T09:42:49;102057.63;;;11.42;71.75
33414;BME280;60055;41.884;12.534;2024-01-25T09:45:18;102065.31;;;11.55;71.95
33414;BME280;60055;41.884;12.534;2024-01-25T09:47:44;102060.84;;;11.57;70.97
33414;BME280;60055;41.884;12.534;2024-01-25T09:50:10;102070.06;;;11.84;70.52
33414;BME280;60055;41.884;12.534;2024-01-25T09:52:35;102067.41;;;12.27;71.23
33414;BME280;60055;41.884;12.534;2024-01-25T09:55:01;102057.63;;;12.30;68.07
33414;BME280;60055;41.884;12.534;2024-01-25T09:57:28;102045.25;;;12.31;68.40
33414;BME280;60055;41.884;12.534;2024-01-25T09:59:54;102044.38;;;12.30;67.82
33414;BME280;60055;41.884;12.534;2024-01-25T10:02:20;102053.75;;;12.45;67.27
33414;BME280;60055;41.884;12.534;2024-01-25T10:04:52;102043.16;;;12.47;67.54
33414;BME280;60055;41.884;12.534;2024-01-25T10:07:44;102036.97;;;12.46;68.03
33414;BME280;60055;41.884;12.534;2024-01-25T10:10:11;102024.41;;;12.54;67.43
33414;BME280;60055;41.884;12.534;2024-01-25T10:12:38;102039.09;;;13.04;67.06
33414;BME280;60055;41.884;12.534;2024-01-25T10:15:04;102022.69;;;12.89;65.98
33414;BME280;60055;41.884;12.534;2024-01-25T10:17:30;102014.03;;;13.17;64.92
33414;BME280;60055;41.884;12.534;2024-01-25T10:19:56;102009.00;;;13.41;64.83
33414;BME280;60055;41.884;12.534;2024-01-25T10:22:21;102009.31;;;13.61;64.22
33414;BME280;60055;41.884;12.534;2024-01-25T10:24:48;102008.75;;;13.79;62.97
33414;BME280;60055;41.884;12.534;2024-01-25T10:27:15;102008.69;;;13.82;63.65
33414;BME280;60055;41.884;12.534;2024-01-25T10:29:41;102006.69;;;13.90;63.34
33414;BME280;60055;41.884;12.534;2024-01-25T10:32:08;102004.19;;;14.13;62.84
33414;BME280;60055;41.884;12.534;2024-01-25T10:34:37;101994.50;;;14.12;61.90
33414;BME280;60055;41.884;12.534;2024-01-25T10:37:06;101983.81;;;14.14;62.03
33414;BME280;60055;41.884;12.534;2024-01-25T10:39:33;101987.97;;;13.95;62.22
33414;BME280;60055;41.884;12.534;2024-01-25T10:41:59;101987.47;;;13.82;63.41
33414;BME280;60055;41.884;12.534;2024-01-25T10:44:26;101980.03;;;13.93;63.34
33414;BME280;60055;41.884;12.534;2024-01-25T10:46:51;101972.16;;;13.90;62.80
33414;BME280;60055;41.884;12.534;2024-01-25T10:49:18;101968.81;;;13.83;63.51
33414;BME280;60055;41.884;12.534;2024-01-25T10:51:44;101972.88;;;13.66;63.50
33414;BME280;60055;41.884;12.534;2024-01-25T10:54:12;101962.13;;;13.70;64.09
33414;BME280;60055;41.884;12.534;2024-01-25T10:56:41;101962.00;;;13.75;63.84
33414;BME280;60055;41.884;12.534;2024-01-25T10:59:07;101950.00;;;13.62;63.90
33414;BME280;60055;41.884;12.534;2024-01-25T11:01:34;101953.84;;;13.52;64.01
33414;BME280;60055;41.884;12.534;2024-01-25T11:04:00;101952.66;;;13.31;64.73
33414;BME280;60055;41.884;12.534;2024-01-25T11:06:27;101963.72;;;13.14;65.55
33414;BME280;60055;41.884;12.534;2024-01-25T11:09:03;101955.47;;;13.25;65.78
33414;BME280;60055;41.884;12.534;2024-01-25T11:11:30;101967.00;;;13.24;66.84
33414;BME280;60055;41.884;12.534;2024-01-25T11:13:56;101954.25;;;13.37;66.38
33414;BME280;60055;41.884;12.534;2024-01-25T11:16:29;101953.59;;;13.28;66.44
33414;BME280;60055;41.884;12.534;2024-01-25T11:18:56;101953.59;;;13.28;66.99
33414;BME280;60055;41.884;12.534;2024-01-25T11:21:49;101954.72;;;13.20;67.27
33414;BME280;60055;41.884;12.534;2024-01-25T11:24:24;101945.72;;;13.25;67.44
33414;BME280;60055;41.884;12.534;2024-01-25T11:26:54;101937.34;;;13.41;66.65
33414;BME280;60055;41.884;12.534;2024-01-25T11:29:21;101934.25;;;13.56;66.80
33414;BME280;60055;41.884;12.534;2024-01-25T11:31:51;101928.34;;;13.75;66.64
33414;BME280;60055;41.884;12.534;2024-01-25T11:34:17;101926.47;;;13.79;66.18
33414;BME280;60055;41.884;12.534;2024-01-25T11:36:47;101922.09;;;13.78;66.62
33414;BME280;60055;41.884;12.534;2024-01-25T11:39:14;101916.47;;;13.89;66.16
33414;BME280;60055;41.884;12.534;2024-01-25T11:41:41;101903.28;;;13.86;66.53
33414;BME280;60055;41.884;12.534;2024-01-25T11:44:09;101908.13;;;13.99;67.38
33414;BME280;60055;41.884;12.534;2024-01-25T11:46:35;101903.44;;;14.09;66.86
33414;BME280;60055;41.884;12.534;2024-01-25T11:49:00;101899.66;;;14.16;66.37
33414;BME280;60055;41.884;12.534;2024-01-25T11:51:26;101877.22;;;14.24;66.92
33414;BME280;60055;41.884;12.534;2024-01-25T11:53:52;101876.50;;;14.47;66.36
33414;BME280;60055;41.884;12.534;2024-01-25T11:56:21;101864.03;;;14.49;65.75
33414;BME280;60055;41.884;12.534;2024-01-25T11:58:47;101860.16;;;14.59;65.47
33414;BME280;60055;41.884;12.534;2024-01-25T12:01:13;101858.25;;;14.63;65.97
33414;BME280;60055;41.884;12.534;2024-01-25T12:03:40;101851.69;;;14.73;65.69
33414;BME280;60055;41.884;12.534;2024-01-25T12:06:06;101843.38;;;14.82;65.47
33414;BME280;60055;41.884;12.534;2024-01-25T12:08:34;101845.16;;;14.81;65.76
33414;BME280;60055;41.884;12.534;2024-01-25T12:11:10;101848.09;;;14.74;65.85
33414;BME280;60055;41.884;12.534;2024-01-25T12:13:38;101843.22;;;14.87;66.11
33414;BME280;60055;41.884;12.534;2024-01-25T12:16:04;101844.81;;;14.91;65.99
33414;BME280;60055;41.884;12.534;2024-01-25T12:18:31;101848.53;;;14.87;65.31
33414;BME280;60055;41.884;12.534;2024-01-25T12:20:58;101848.03;;;15.00;65.36
33414;BME280;60055;41.884;12.534;2024-01-25T12:23:39;101845.91;;;15.10;64.82
33414;BME280;60055;41.884;12.534;2024-01-25T12:26:06;101838.69;;;15.13;65.05
33414;BME280;60055;41.884;12.534;2024-01-25T12:28:32;101835.38;;;15.07;65.43
33414;BME280;60055;41.884;12.534;2024-01-25T12:31:05;101831.47;;;15.17;65.07
33414;BME280;60055;41.884;12.534;2024-01-25T12:33:32;101837.56;;;15.19;64.70
33414;BME280;60055;41.884;12.534;2024-01-25T12:35:58;101838.34;;;15.22;64.78
33414;BME280;60055;41.884;12.534;2024-01-25T12:38:24;101833.72;;;15.27;64.62
33414;BME280;60055;41.884;12.534;2024-01-25T12:40:51;101829.25;;;15.28;64.27